aviador You're here:

OIFM Decoded Metar

ESFAHAN in IRAN
Report Time2017-11-25 00:00:00
UTC Time2017-11-25 00:19:48
Flight Rules vfr VFR
Wind250° at 08 kt
W.Decomp.*RWY 26: 7.8 kt HW 1.7 kt LCW
W.Rank250° ranks 10
Current wind is below 250° avg. (8.7)
Visibility9999 m
Phenomena:N/A
Clouds:N/A
Expected CloudBase > 2,400 ft AGL from Temp-Dew spread
CeilingNone
Temp-4°C (ISA -9)
Dew Point-10°C (63% RH)
AAT-9.9°C
QNH1021 hPa
Density Alt3,750 ft
Elevation5,059 ft
Report Wrong Elevation
Raw Report
METAR OIFM 250000Z 25008KT CAVOK M04/M10 Q1021 A3016=

Extra information for OIFM:More info

Metar Taf Metar & Taf Last 4 Metars F.Rules Stats Wind Profile Meteogram Temp Stats Airport Information Weather charts Add Link Nearby VenuesMetar ALERT Operation Metar Decoded Social comments